Time;durP1;ratioP1;P1;durP2;ratioP2;P2;SDS_P1;SDS_P2;PMS_P1;PMS_P2;Temp;Humidity;BMP_temperature;BMP_pressure;BME280_temperature;BME280_humidity;BME280_pressure;Samples;Min_cycle;Max_cycle;Signal;HPM_P1;HPM_P2
2021/04/17 00:00:55;;;;;;;9.03;5.27;;;7.70;88.60;;;;;;5097603;23;20936;-83
2021/04/17 00:02:57;;;;;;;9.43;5.60;;;7.70;88.70;;;;;;5096455;23;20460;-83
2021/04/17 00:04:59;;;;;;;9.37;5.83;;;7.70;88.80;;;;;;5099458;23;20976;-83
2021/04/17 00:07:01;;;;;;;28.23;15.70;;;7.70;88.80;;;;;;5104331;23;20415;-83
2021/04/17 00:09:10;;;;;;;43.50;23.07;;;7.70;88.80;;;;;;5103874;23;20457;-82
2021/04/17 00:11:12;;;;;;;54.80;32.93;;;7.70;88.90;;;;;;5097282;23;20525;-84
2021/04/17 00:13:14;;;;;;;14.87;10.60;;;7.70;89.00;;;;;;5097219;23;20425;-83
2021/04/17 00:15:16;;;;;;;9.80;7.40;;;7.60;89.00;;;;;;5097626;23;20429;-83
2021/04/17 00:17:20;;;;;;;8.43;6.80;;;7.60;89.10;;;;;;5106001;23;20483;-83
2021/04/17 00:19:23;;;;;;;10.80;6.57;;;7.60;89.10;;;;;;5105013;23;20454;-82
2021/04/17 00:21:25;;;;;;;7.77;5.80;;;7.60;89.40;;;;;;5105458;23;20926;-82
2021/04/17 00:23:27;;;;;;;6.67;5.43;;;7.60;89.40;;;;;;5106453;23;20454;-83
2021/04/17 00:25:29;;;;;;;7.53;5.50;;;7.60;89.40;;;;;;5097600;23;20422;-82
2021/04/17 00:27:31;;;;;;;8.10;5.50;;;7.60;89.60;;;;;;5106101;23;20521;-83
2021/04/17 00:29:34;;;;;;;9.13;5.77;;;7.70;89.60;;;;;;5104297;23;20454;-82
2021/04/17 00:31:37;;;;;;;15.60;5.60;;;7.70;89.60;;;;;;5096944;23;20532;-84
2021/04/17 00:33:39;;;;;;;9.43;6.27;;;7.70;89.60;;;;;;5105302;23;20509;-83
2021/04/17 00:35:41;;;;;;;7.93;5.50;;;7.60;89.90;;;;;;5106217;23;20505;-83
2021/04/17 00:37:43;;;;;;;7.27;6.00;;;7.50;89.90;;;;;;5105130;23;20530;-84
2021/04/17 00:39:45;;;;;;;7.80;5.27;;;7.50;89.90;;;;;;5097229;23;20780;-82
2021/04/17 00:41:48;;;;;;;7.47;5.30;;;7.50;89.60;;;;;;5096552;23;20458;-84
2021/04/17 00:43:50;;;;;;;9.90;5.30;;;7.40;89.80;;;;;;5095973;23;20434;-82
2021/04/17 00:45:52;;;;;;;10.23;5.27;;;7.40;90.00;;;;;;5105605;23;20451;-81
2021/04/17 00:47:54;;;;;;;6.80;4.97;;;7.50;90.20;;;;;;5096142;23;20470;-82
2021/04/17 00:49:56;;;;;;;7.40;6.17;;;7.60;90.20;;;;;;5096946;23;20441;-83
2021/04/17 00:51:58;;;;;;;9.40;5.30;;;7.60;90.20;;;;;;5096732;23;20498;-82
2021/04/17 00:54:00;;;;;;;8.80;5.10;;;7.70;89.90;;;;;;5105076;23;20451;-81
2021/04/17 00:56:04;;;;;;;7.07;4.93;;;7.70;89.90;;;;;;5096876;23;20453;-82
2021/04/17 00:58:07;;;;;;;5.77;4.90;;;7.60;89.90;;;;;;5111110;23;20455;-84
2021/04/17 01:00:12;;;;;;;7.33;4.83;;;7.70;89.80;;;;;;5118915;23;20451;-85
2021/04/17 01:02:17;;;;;;;8.47;5.33;;;7.70;89.90;;;;;;5115939;23;20474;-83
2021/04/17 01:04:32;;;;;;;11.33;5.10;;;7.70;90.00;;;;;;5119729;23;20445;-81
2021/04/17 01:06:40;;;;;;;9.10;4.63;;;7.70;90.10;;;;;;5111552;23;20451;-84
2021/04/17 01:08:50;;;;;;;6.10;4.67;;;7.50;90.20;;;;;;5119093;23;20445;-82
2021/04/17 01:10:55;;;;;;;7.90;4.73;;;7.60;90.50;;;;;;5111297;23;20432;-84
2021/04/17 01:12:58;;;;;;;5.70;4.47;;;7.60;90.50;;;;;;5106835;23;21022;-83
2021/04/17 01:15:04;;;;;;;5.77;4.20;;;7.60;90.40;;;;;;5106807;23;21193;-83
2021/04/17 01:17:07;;;;;;;10.90;4.87;;;7.60;90.20;;;;;;5106495;23;21019;-83
2021/04/17 01:19:13;;;;;;;7.27;5.07;;;7.50;90.50;;;;;;5098185;23;20440;-83
2021/04/17 01:21:16;;;;;;;6.73;4.47;;;7.50;90.60;;;;;;5098391;23;20526;-83
2021/04/17 01:23:22;;;;;;;6.03;3.93;;;7.50;90.60;;;;;;5106499;23;20451;-83
2021/04/17 01:25:24;;;;;;;5.93;4.20;;;7.50;90.70;;;;;;5097831;23;20436;-83
2021/04/17 01:27:27;;;;;;;8.80;5.30;;;7.40;90.90;;;;;;5097193;23;20486;-83
2021/04/17 01:29:31;;;;;;;19.00;4.50;;;7.30;91.30;;;;;;5104411;23;20506;-84
2021/04/17 01:31:35;;;;;;;6.70;4.53;;;7.20;91.60;;;;;;5107314;23;20684;-84
2021/04/17 01:33:40;;;;;;;5.70;4.07;;;7.20;91.80;;;;;;5097845;23;20522;-84
2021/04/17 01:35:43;;;;;;;6.90;4.10;;;7.30;91.60;;;;;;5099040;23;20479;-83
2021/04/17 01:38:14;;;;;;;5.50;3.90;;;7.30;91.70;;;;;;5098451;23;20538;-83
2021/04/17 01:40:17;;;;;;;6.10;4.10;;;7.30;91.90;;;;;;5107397;23;21176;-83
2021/04/17 01:42:19;;;;;;;8.20;4.60;;;7.30;92.00;;;;;;5107744;23;21239;-83
2021/04/17 01:44:24;;;;;;;6.80;4.40;;;7.20;92.20;;;;;;5098783;23;20513;-84
2021/04/17 01:46:29;;;;;;;5.37;3.93;;;7.30;92.30;;;;;;5098359;23;20549;-83
2021/04/17 01:48:32;;;;;;;7.70;4.50;;;7.30;92.10;;;;;;5097831;23;20473;-84
2021/04/17 01:50:36;;;;;;;6.87;3.90;;;7.40;91.70;;;;;;5098278;23;20455;-84
2021/04/17 01:52:40;;;;;;;5.57;4.60;;;7.50;91.50;;;;;;5098836;23;20450;-83
2021/04/17 01:54:47;;;;;;;4.53;4.10;;;7.50;91.40;;;;;;5105058;23;20547;-83
2021/04/17 01:56:52;;;;;;;7.97;4.10;;;7.50;91.10;;;;;;5098442;23;20511;-81
2021/04/17 01:59:03;;;;;;;7.90;4.23;;;7.50;90.80;;;;;;5096812;23;20429;-82
2021/04/17 02:01:07;;;;;;;6.20;3.87;;;7.60;91.10;;;;;;5103170;23;20483;-83
2021/04/17 02:03:09;;;;;;;5.60;4.87;;;7.50;90.90;;;;;;5098196;23;20508;-82
2021/04/17 02:05:12;;;;;;;7.70;4.40;;;7.60;90.90;;;;;;5098211;23;20495;-81
2021/04/17 02:07:14;;;;;;;4.97;3.73;;;7.60;90.80;;;;;;5098389;23;20616;-84
2021/04/17 02:09:16;;;;;;;50.27;25.03;;;7.60;90.80;;;;;;5107392;23;20848;-82
2021/04/17 02:11:18;;;;;;;71.53;35.27;;;7.70;90.90;;;;;;5100205;23;20465;-83
2021/04/17 02:13:20;;;;;;;91.90;50.47;;;7.80;90.60;;;;;;5111305;23;20915;-84
2021/04/17 02:15:22;;;;;;;28.43;16.23;;;7.80;90.40;;;;;;5099786;23;20433;-83
2021/04/17 02:17:27;;;;;;;14.07;7.60;;;7.80;90.40;;;;;;5099224;23;20431;-84
2021/04/17 02:19:35;;;;;;;7.73;4.90;;;7.80;90.10;;;;;;5098999;23;20757;-82
2021/04/17 02:21:39;;;;;;;8.80;5.00;;;7.80;89.80;;;;;;5107632;23;20446;-83
2021/04/17 02:23:41;;;;;;;9.43;5.00;;;7.70;90.10;;;;;;5106576;23;20447;-82
2021/04/17 02:25:43;;;;;;;7.03;4.73;;;7.70;89.80;;;;;;5099605;23;20742;-83
2021/04/17 02:27:45;;;;;;;7.10;4.37;;;7.70;89.50;;;;;;5106263;23;20504;-82
2021/04/17 02:29:51;;;;;;;5.20;3.77;;;7.70;89.50;;;;;;5106077;23;20948;-83
2021/04/17 02:31:53;;;;;;;6.53;3.70;;;7.60;89.80;;;;;;5105882;23;20428;-83
2021/04/17 02:33:57;;;;;;;10.47;4.50;;;7.60;89.90;;;;;;5096087;23;20429;-84
2021/04/17 02:36:00;;;;;;;6.83;4.20;;;7.60;90.00;;;;;;5106404;23;20443;-83
2021/04/17 02:38:02;;;;;;;6.20;4.50;;;7.60;90.30;;;;;;5098631;23;20460;-83
2021/04/17 02:40:05;;;;;;;7.30;4.80;;;7.60;90.40;;;;;;5107009;23;20450;-84
2021/04/17 02:42:09;;;;;;;7.77;4.20;;;7.60;90.60;;;;;;5098976;23;20541;-84
2021/04/17 02:44:10;;;;;;;5.83;3.73;;;7.70;90.60;;;;;;5098843;23;20542;-82
2021/04/17 02:46:14;;;;;;;7.00;4.33;;;7.70;90.60;;;;;;5097730;23;21059;-83
2021/04/17 02:48:17;;;;;;;7.40;4.17;;;7.70;90.40;;;;;;5096001;23;20459;-83
2021/04/17 02:50:20;;;;;;;10.23;4.93;;;7.70;90.40;;;;;;5097009;23;20451;-82
2021/04/17 02:52:22;;;;;;;11.27;4.87;;;7.70;90.50;;;;;;5096317;23;20440;-82
2021/04/17 02:54:24;;;;;;;6.27;4.73;;;7.70;90.20;;;;;;5097234;23;20431;-83
2021/04/17 02:56:26;;;;;;;5.27;4.20;;;7.70;90.00;;;;;;5095394;23;20434;-82
2021/04/17 02:58:28;;;;;;;5.20;3.77;;;7.70;90.00;;;;;;5096380;23;20842;-81
2021/04/17 03:00:31;;;;;;;6.53;4.10;;;7.70;90.00;;;;;;5096111;23;20574;-82
2021/04/17 03:02:33;;;;;;;4.30;3.50;;;7.80;89.60;;;;;;5096810;23;20462;-83
2021/04/17 03:04:35;;;;;;;8.60;3.90;;;7.70;89.60;;;;;;5105073;23;20451;-82
2021/04/17 03:06:37;;;;;;;7.67;4.10;;;7.70;89.80;;;;;;5096180;23;20458;-83
2021/04/17 03:08:39;;;;;;;6.00;4.20;;;7.70;89.80;;;;;;5096151;23;20436;-82
2021/04/17 03:10:41;;;;;;;7.23;4.40;;;7.70;89.90;;;;;;5098347;23;20425;-81
2021/04/17 03:12:43;;;;;;;7.03;3.90;;;7.60;90.10;;;;;;5096388;23;20534;-82
2021/04/17 03:14:45;;;;;;;5.90;4.23;;;7.50;90.30;;;;;;5104999;23;20450;-84
2021/04/17 03:16:47;;;;;;;8.40;4.53;;;7.50;90.90;;;;;;5105192;23;20542;-83
2021/04/17 03:18:53;;;;;;;7.80;4.80;;;7.40;91.30;;;;;;5097185;23;20959;-83
2021/04/17 03:20:55;;;;;;;4.53;3.80;;;7.50;91.10;;;;;;5104998;23;20890;-82
2021/04/17 03:22:58;;;;;;;7.70;5.60;;;7.50;91.00;;;;;;5105270;23;20482;-83
2021/04/17 03:25:00;;;;;;;5.97;3.83;;;7.40;91.00;;;;;;5095743;23;20431;-83
2021/04/17 03:27:02;;;;;;;7.20;4.40;;;7.50;91.20;;;;;;5097789;23;20488;-85
2021/04/17 03:29:04;;;;;;;6.80;4.00;;;7.50;91.10;;;;;;5098462;23;20451;-83
2021/04/17 03:31:06;;;;;;;8.77;5.00;;;7.40;91.30;;;;;;5096971;23;20784;-82
2021/04/17 03:33:09;;;;;;;6.03;4.33;;;7.40;91.30;;;;;;5104338;23;20450;-83
2021/04/17 03:35:13;;;;;;;6.80;4.67;;;7.40;91.40;;;;;;5096641;23;20455;-83
2021/04/17 03:37:14;;;;;;;7.20;4.63;;;7.30;91.60;;;;;;5104845;23;20491;-82
2021/04/17 03:39:17;;;;;;;9.13;4.20;;;7.30;91.80;;;;;;5105455;23;20494;-82
2021/04/17 03:41:19;;;;;;;8.30;4.37;;;7.30;91.90;;;;;;5105419;23;20449;-82
2021/04/17 03:43:21;;;;;;;8.10;4.27;;;7.40;91.90;;;;;;5103639;23;20528;-83
2021/04/17 03:45:23;;;;;;;6.20;4.27;;;7.40;91.90;;;;;;5102252;23;20482;-82
2021/04/17 03:47:25;;;;;;;5.93;3.70;;;7.40;92.00;;;;;;5093707;23;20461;-83
2021/04/17 03:49:27;;;;;;;6.20;4.27;;;7.40;92.00;;;;;;5095246;23;20440;-83
2021/04/17 03:51:29;;;;;;;9.13;4.00;;;7.40;92.00;;;;;;5104698;23;20455;-84
2021/04/17 03:53:31;;;;;;;4.93;3.83;;;7.40;92.20;;;;;;5096957;23;20459;-84
2021/04/17 03:55:34;;;;;;;7.33;4.07;;;7.40;92.10;;;;;;5096419;23;20451;-83
2021/04/17 03:57:36;;;;;;;6.90;4.03;;;7.40;92.30;;;;;;5100798;23;20455;-83
2021/04/17 03:59:38;;;;;;;9.83;5.47;;;7.40;92.30;;;;;;5103368;23;20469;-83
2021/04/17 04:01:40;;;;;;;6.33;4.00;;;7.30;92.50;;;;;;5111341;23;20517;-83
2021/04/17 04:03:42;;;;;;;4.70;3.80;;;7.30;92.60;;;;;;5099341;23;20429;-84
2021/04/17 04:05:44;;;;;;;6.77;4.00;;;7.20;92.60;;;;;;5105578;23;20735;-82
2021/04/17 04:07:46;;;;;;;6.37;3.97;;;7.30;92.90;;;;;;5098061;23;20930;-83
2021/04/17 04:09:48;;;;;;;6.60;3.80;;;7.30;93.00;;;;;;5104308;23;20501;-83
2021/04/17 04:11:51;;;;;;;6.90;4.40;;;7.30;92.90;;;;;;5101731;23;20459;-82
2021/04/17 04:13:53;;;;;;;6.20;4.10;;;7.30;92.90;;;;;;5102855;23;20518;-83
2021/04/17 04:15:55;;;;;;;7.00;4.17;;;7.30;92.80;;;;;;5109255;23;20965;-83
2021/04/17 04:17:57;;;;;;;6.90;4.30;;;7.30;92.90;;;;;;5107574;23;20429;-83
2021/04/17 04:20:01;;;;;;;6.17;4.40;;;7.30;93.00;;;;;;5100021;23;20458;-83
2021/04/17 04:22:03;;;;;;;7.23;4.47;;;7.30;93.00;;;;;;5099583;23;20541;-83
2021/04/17 04:24:05;;;;;;;7.63;4.43;;;7.30;93.00;;;;;;5099802;23;20461;-83
2021/04/17 04:26:08;;;;;;;5.90;3.80;;;7.30;93.00;;;;;;5099426;23;20516;-83
2021/04/17 04:28:11;;;;;;;9.17;4.43;;;7.30;93.00;;;;;;5104269;23;20471;-82
2021/04/17 04:30:16;;;;;;;6.40;4.60;;;7.40;93.10;;;;;;5103496;23;20464;-83
2021/04/17 04:32:19;;;;;;;7.33;3.80;;;7.40;92.90;;;;;;5095446;23;20757;-81
2021/04/17 04:34:24;;;;;;;6.83;4.30;;;7.40;93.10;;;;;;5104414;23;20450;-82
2021/04/17 04:36:26;;;;;;;7.13;4.30;;;7.40;93.20;;;;;;5104233;23;20454;-83
2021/04/17 04:38:28;;;;;;;7.73;4.47;;;7.40;93.00;;;;;;5095569;23;20461;-82
2021/04/17 04:40:30;;;;;;;6.03;4.47;;;7.40;93.20;;;;;;5096979;23;20477;-83
2021/04/17 04:42:34;;;;;;;5.37;4.00;;;7.50;93.10;;;;;;5104930;23;20440;-82
2021/04/17 04:44:37;;;;;;;7.63;4.10;;;7.40;93.20;;;;;;5104814;23;20462;-82
2021/04/17 04:46:39;;;;;;;5.53;4.30;;;7.30;93.10;;;;;;5103148;23;20995;-82
2021/04/17 04:48:42;;;;;;;5.13;4.63;;;7.40;93.30;;;;;;5094280;23;20504;-83
2021/04/17 04:50:44;;;;;;;9.50;5.70;;;7.40;93.50;;;;;;5104669;23;20429;-82
2021/04/17 04:52:46;;;;;;;9.20;5.57;;;7.50;93.20;;;;;;5097650;23;20477;-82
2021/04/17 04:54:47;;;;;;;6.67;4.60;;;7.50;93.10;;;;;;5105542;23;20454;-83
2021/04/17 04:56:49;;;;;;;10.73;6.23;;;7.50;92.90;;;;;;5098721;23;20425;-83
2021/04/17 04:58:51;;;;;;;10.77;7.10;;;7.60;92.90;;;;;;5107363;23;20430;-83
2021/04/17 05:00:54;;;;;;;10.17;5.40;;;7.60;93.00;;;;;;5098024;23;20508;-83
2021/04/17 05:02:56;;;;;;;8.17;5.20;;;7.60;93.00;;;;;;5108040;23;20457;-83
2021/04/17 05:04:58;;;;;;;6.47;4.53;;;7.70;92.80;;;;;;5104773;23;20469;-83
2021/04/17 05:07:00;;;;;;;7.93;4.80;;;7.60;92.90;;;;;;5096605;23;20457;-84
2021/04/17 05:09:03;;;;;;;6.80;5.60;;;7.60;93.10;;;;;;5093992;23;20581;-82
2021/04/17 05:11:05;;;;;;;8.50;4.70;;;7.70;93.00;;;;;;5092476;23;20458;-81
2021/04/17 05:13:07;;;;;;;7.70;5.07;;;7.70;93.00;;;;;;5100663;23;20457;-82
2021/04/17 05:15:09;;;;;;;7.00;4.87;;;7.70;93.10;;;;;;5092532;23;20433;-82
2021/04/17 05:17:13;;;;;;;5.80;4.60;;;7.70;93.30;;;;;;5092732;23;21476;-83
2021/04/17 05:19:16;;;;;;;6.77;4.90;;;7.70;93.20;;;;;;5092531;23;20459;-82
2021/04/17 05:21:18;;;;;;;12.03;5.37;;;7.70;92.90;;;;;;5092756;23;20458;-82
2021/04/17 05:23:32;;;;;;;9.20;4.40;;;7.70;93.00;;;;;;5101250;23;20486;-82
2021/04/17 05:25:34;;;;;;;7.60;4.53;;;7.80;92.70;;;;;;5092618;23;20454;-83
2021/04/17 05:27:36;;;;;;;9.93;5.53;;;7.80;92.80;;;;;;5094088;23;20459;-82
2021/04/17 05:29:38;;;;;;;8.77;4.47;;;7.80;93.00;;;;;;5095481;23;20960;-79
2021/04/17 05:31:43;;;;;;;6.70;4.70;;;7.80;93.20;;;;;;5096547;23;20462;-82
2021/04/17 05:33:49;;;;;;;6.07;4.50;;;7.70;93.00;;;;;;5105587;23;20467;-82
2021/04/17 05:35:50;;;;;;;6.53;4.73;;;7.70;93.10;;;;;;5107442;23;20517;-81
2021/04/17 05:37:52;;;;;;;11.13;4.60;;;7.60;93.60;;;;;;5103354;23;20429;-83
2021/04/17 05:39:54;;;;;;;6.80;4.60;;;7.80;94.20;;;;;;5120470;23;20481;-82
2021/04/17 05:41:56;;;;;;;6.00;4.40;;;7.80;93.80;;;;;;5112151;23;20547;-85
2021/04/17 05:43:58;;;;;;;7.57;4.53;;;7.80;93.50;;;;;;5105139;23;21124;-81
2021/04/17 05:46:00;;;;;;;7.60;4.50;;;7.80;93.50;;;;;;5106399;23;20437;-81
2021/04/17 05:48:02;;;;;;;10.40;6.10;;;7.80;93.50;;;;;;5118508;23;20449;-84
2021/04/17 05:50:10;;;;;;;8.30;5.20;;;7.80;93.60;;;;;;5107080;23;20455;-83
2021/04/17 05:52:11;;;;;;;6.70;4.40;;;7.90;93.50;;;;;;5110938;23;20539;-84
2021/04/17 05:54:14;;;;;;;5.27;4.50;;;7.90;93.50;;;;;;5110456;23;20545;-83
2021/04/17 05:56:16;;;;;;;9.30;4.60;;;8.00;93.60;;;;;;5098932;23;20469;-82
2021/04/17 05:58:22;;;;;;;12.47;5.90;;;8.00;93.60;;;;;;5107219;23;20451;-82
2021/04/17 06:00:24;;;;;;;8.07;5.57;;;8.00;93.40;;;;;;5107367;23;20425;-82
2021/04/17 06:02:26;;;;;;;5.70;4.83;;;8.10;93.50;;;;;;5107583;23;20855;-82
2021/04/17 06:04:28;;;;;;;9.93;5.10;;;8.00;93.50;;;;;;5107370;23;21349;-83
2021/04/17 06:06:31;;;;;;;7.77;4.53;;;8.00;93.60;;;;;;5106407;23;20454;-82
2021/04/17 06:08:33;;;;;;;7.93;4.93;;;8.00;93.70;;;;;;5098065;23;20458;-82
2021/04/17 06:10:35;;;;;;;6.00;4.67;;;8.10;93.80;;;;;;5098734;23;20458;-83
2021/04/17 06:12:40;;;;;;;6.57;4.13;;;8.20;93.90;;;;;;5097984;23;20436;-83
2021/04/17 06:14:42;;;;;;;7.40;4.73;;;8.20;93.90;;;;;;5107272;23;20932;-83
2021/04/17 06:16:44;;;;;;;6.60;4.90;;;8.20;94.00;;;;;;5098923;23;20464;-83
2021/04/17 06:18:46;;;;;;;6.27;4.57;;;8.30;94.00;;;;;;5099136;23;20430;-82
2021/04/17 06:20:48;;;;;;;7.30;5.63;;;8.40;93.90;;;;;;5105616;23;20835;-83
2021/04/17 06:22:51;;;;;;;5.53;4.33;;;8.30;93.70;;;;;;5106579;23;20479;-81
2021/04/17 06:24:53;;;;;;;8.53;5.23;;;8.20;94.00;;;;;;5109416;23;20788;-84
2021/04/17 06:26:55;;;;;;;7.57;4.90;;;8.20;94.30;;;;;;5115546;23;20484;-82
2021/04/17 06:28:57;;;;;;;6.37;4.30;;;8.20;94.30;;;;;;5104879;23;20454;-82
2021/04/17 06:31:00;;;;;;;11.10;4.73;;;8.20;94.40;;;;;;5098314;23;20441;-82
2021/04/17 06:33:01;;;;;;;8.50;4.50;;;8.20;94.60;;;;;;5096621;23;20433;-82
2021/04/17 06:35:04;;;;;;;6.87;5.13;;;8.10;94.60;;;;;;5095888;23;20457;-83
2021/04/17 06:37:08;;;;;;;8.30;5.40;;;8.20;94.60;;;;;;5104009;23;20454;-82
2021/04/17 06:39:11;;;;;;;7.53;5.40;;;8.20;94.40;;;;;;5095994;23;20467;-82
2021/04/17 06:41:14;;;;;;;5.47;4.43;;;8.30;94.40;;;;;;5096798;23;20457;-84
2021/04/17 06:43:20;;;;;;;8.30;5.13;;;8.30;94.50;;;;;;5103837;23;20481;-82
2021/04/17 06:45:23;;;;;;;7.87;4.70;;;8.30;94.40;;;;;;5096697;23;20517;-83
2021/04/17 06:47:25;;;;;;;5.70;4.27;;;8.40;94.40;;;;;;5097163;23;20512;-82
2021/04/17 06:49:28;;;;;;;8.70;5.07;;;8.40;94.30;;;;;;5097412;23;20435;-82
2021/04/17 06:51:38;;;;;;;8.50;4.70;;;8.50;94.50;;;;;;5104695;23;20463;-82
2021/04/17 06:53:52;;;;;;;7.37;5.03;;;8.40;94.50;;;;;;5096922;23;20444;-84
2021/04/17 06:55:58;;;;;;;8.23;4.70;;;8.40;94.50;;;;;;5103917;23;20429;-83
2021/04/17 06:58:04;;;;;;;7.07;4.83;;;8.40;94.60;;;;;;5103392;23;20458;-83
2021/04/17 07:00:08;;;;;;;9.97;5.03;;;8.50;94.50;;;;;;5103931;23;20450;-82
2021/04/17 07:02:15;;;;;;;9.47;5.13;;;8.50;94.60;;;;;;5104776;23;20453;-83
2021/04/17 07:04:17;;;;;;;8.70;5.00;;;8.50;94.90;;;;;;5104778;23;20455;-83
2021/04/17 07:06:19;;;;;;;7.10;4.50;;;8.60;94.90;;;;;;5104364;23;20903;-83
2021/04/17 07:08:21;;;;;;;6.17;4.37;;;8.80;95.40;;;;;;5094079;23;20541;-82
2021/04/17 07:10:26;;;;;;;6.93;4.60;;;8.90;94.70;;;;;;5102346;23;20429;-82
2021/04/17 07:12:28;;;;;;;7.10;4.73;;;8.90;94.70;;;;;;5093779;23;20923;-82
2021/04/17 07:14:42;;;;;;;40.23;21.53;;;8.90;94.70;;;;;;5094149;23;20462;-81
2021/04/17 07:16:59;;;;;;;14.37;9.43;;;9.00;95.30;;;;;;5093255;23;20451;-82
2021/04/17 07:19:02;;;;;;;18.77;12.10;;;9.30;95.70;;;;;;5093501;23;20458;-81
2021/04/17 07:21:27;;;;;;;36.00;22.70;;;9.60;95.00;;;;;;5093770;23;20450;-81
2021/04/17 07:23:43;;;;;;;13.87;8.10;;;9.60;94.30;;;;;;5093960;23;20485;-83
2021/04/17 07:25:45;;;;;;;6.70;5.00;;;9.80;93.90;;;;;;5101574;23;20816;-82
2021/04/17 07:27:49;;;;;;;8.47;4.97;;;9.70;93.20;;;;;;5101163;23;20443;-81
2021/04/17 07:29:50;;;;;;;19.60;11.80;;;9.60;93.30;;;;;;5102587;23;20451;-82
2021/04/17 07:35:17;;;;;;;36.07;22.00;;;9.50;93.40;;;;;;4982249;23;20426;-82
2021/04/17 07:37:19;;;;;;;10.80;7.30;;;9.70;94.00;;;;;;5081630;23;20465;-82
2021/04/17 07:39:32;;;;;;;8.17;6.03;;;9.80;93.20;;;;;;5098560;23;20454;-82
2021/04/17 07:41:38;;;;;;;6.70;5.53;;;9.80;93.40;;;;;;5098404;23;20450;-83
2021/04/17 07:44:28;;;;;;;9.77;5.67;;;9.80;93.30;;;;;;5103625;23;20440;-82
2021/04/17 07:46:39;;;;;;;8.27;4.87;;;9.90;93.20;;;;;;5093660;23;20490;-82
2021/04/17 07:48:43;;;;;;;5.87;5.07;;;10.00;92.80;;;;;;5091906;23;20447;-83
2021/04/17 07:50:46;;;;;;;9.47;4.83;;;10.20;92.50;;;;;;5100857;23;20447;-82
2021/04/17 07:52:55;;;;;;;6.30;4.40;;;10.30;91.90;;;;;;5092091;23;20541;-82
2021/04/17 07:55:11;;;;;;;11.47;7.67;;;10.40;91.70;;;;;;5100630;23;20522;-83
2021/04/17 07:57:47;;;;;;;12.80;5.80;;;10.50;91.00;;;;;;5094074;23;20788;-82
2021/04/17 07:59:51;;;;;;;13.43;6.40;;;10.50;90.80;;;;;;5094117;23;20465;-83
2021/04/17 08:01:53;;;;;;;13.77;7.57;;;10.70;91.40;;;;;;5102582;23;21289;-82
2021/04/17 08:03:56;;;;;;;10.40;4.87;;;11.00;90.70;;;;;;5105224;23;20501;-82
2021/04/17 08:05:59;;;;;;;7.47;4.67;;;11.20;90.50;;;;;;5092220;23;20465;-82
2021/04/17 08:08:01;;;;;;;32.47;20.27;;;11.40;89.70;;;;;;5091807;23;20458;-82
2021/04/17 08:10:04;;;;;;;12.97;8.90;;;11.70;89.60;;;;;;5091708;23;20537;-82
2021/04/17 08:12:08;;;;;;;38.93;28.57;;;11.80;88.20;;;;;;5100196;23;21324;-82
2021/04/17 08:14:10;;;;;;;10.70;7.57;;;11.90;87.20;;;;;;5092610;23;20461;-81
2021/04/17 08:16:47;;;;;;;5.70;4.37;;;12.10;87.00;;;;;;5092444;23;20535;-82
2021/04/17 08:18:52;;;;;;;7.13;4.90;;;12.10;86.00;;;;;;5091586;23;20948;-82
2021/04/17 08:20:54;;;;;;;60.80;37.77;;;11.90;85.80;;;;;;5100766;23;20449;-82
2021/04/17 08:23:00;;;;;;;48.87;29.07;;;11.90;85.90;;;;;;5091442;23;20459;-82
2021/04/17 08:25:03;;;;;;;47.70;25.97;;;11.90;86.20;;;;;;5099887;23;20541;-82
2021/04/17 08:27:06;;;;;;;15.63;8.87;;;12.00;86.70;;;;;;5100662;23;20443;-82
2021/04/17 08:29:08;;;;;;;6.63;4.90;;;12.00;85.20;;;;;;5092362;23;21060;-82
2021/04/17 08:32:12;;;;;;;7.20;6.17;;;12.00;85.20;;;;;;5099744;23;20957;-79
2021/04/17 08:34:17;;;;;;;62.67;33.50;;;12.20;85.20;;;;;;5089948;23;20518;-81
2021/04/17 08:36:31;;;;;;;25.77;17.23;;;12.20;83.90;;;;;;5090984;23;20455;-81
2021/04/17 08:38:35;;;;;;;7.20;4.30;;;12.20;83.30;;;;;;5090840;23;20465;-80
2021/04/17 08:40:41;;;;;;;5.33;3.53;;;12.10;82.60;;;;;;5099357;23;20529;-81
2021/04/17 08:42:45;;;;;;;57.83;28.70;;;12.20;82.90;;;;;;5091199;23;21007;-81
2021/04/17 08:44:47;;;;;;;19.93;12.70;;;12.40;83.00;;;;;;5090567;23;20459;-81
2021/04/17 08:46:52;;;;;;;32.23;19.97;;;12.70;83.70;;;;;;5091349;23;20757;-84
2021/04/17 08:48:56;;;;;;;6.20;5.00;;;12.80;82.30;;;;;;5099991;23;20940;-81
2021/04/17 08:51:26;;;;;;;6.00;3.47;;;12.90;82.30;;;;;;5092560;23;20486;-80
2021/04/17 08:53:28;;;;;;;5.30;3.80;;;12.90;79.80;;;;;;5090428;23;20913;-81
2021/04/17 08:55:43;;;;;;;4.53;3.80;;;12.80;80.10;;;;;;5089864;23;20451;-81
2021/04/17 08:57:45;;;;;;;6.47;3.87;;;12.80;80.50;;;;;;5090197;23;20454;-82
2021/04/17 08:59:54;;;;;;;23.50;13.23;;;12.90;79.50;;;;;;5097898;23;20439;-81
2021/04/17 09:02:00;;;;;;;29.83;16.90;;;12.70;79.70;;;;;;5091439;23;20451;-80
2021/04/17 09:04:10;;;;;;;58.40;36.03;;;12.80;80.30;;;;;;5099521;23;20797;-81
2021/04/17 09:06:41;;;;;;;11.57;8.03;;;13.00;80.90;;;;;;5099673;23;20458;-81
2021/04/17 09:09:30;;;;;;;9.80;7.23;;;13.20;82.30;;;;;;5099659;23;20531;-82
2021/04/17 09:11:36;;;;;;;8.63;4.60;;;13.80;82.10;;;;;;5098161;23;20454;-80
2021/04/17 09:13:38;;;;;;;7.80;5.50;;;14.10;79.70;;;;;;5099020;23;20485;-81
2021/04/17 09:15:50;;;;;;;8.47;4.40;;;14.40;79.50;;;;;;5090499;23;20451;-80
2021/04/17 09:17:52;;;;;;;8.20;4.70;;;14.60;79.00;;;;;;5090398;23;20515;-80
2021/04/17 09:19:54;;;;;;;6.83;4.43;;;14.90;78.60;;;;;;5098502;23;20458;-80
2021/04/17 09:21:56;;;;;;;8.60;4.80;;;14.90;77.90;;;;;;5090633;23;20462;-81
2021/04/17 09:23:59;;;;;;;5.93;3.50;;;14.90;76.50;;;;;;5098565;23;20454;-81
2021/04/17 09:26:01;;;;;;;5.70;3.20;;;14.70;75.00;;;;;;5090210;23;20454;-81
2021/04/17 09:28:04;;;;;;;4.30;3.50;;;14.80;74.40;;;;;;5089859;23;20561;-81
2021/04/17 09:30:09;;;;;;;6.50;4.20;;;14.90;73.60;;;;;;5099398;23;20963;-80
2021/04/17 09:32:12;;;;;;;5.43;3.77;;;15.00;74.40;;;;;;5099461;23;21251;-79
2021/04/17 09:34:16;;;;;;;5.10;3.50;;;15.10;74.30;;;;;;5091411;23;20461;-80
2021/04/17 09:36:20;;;;;;;5.93;3.17;;;15.10;74.00;;;;;;5099263;23;20542;-81
2021/04/17 09:38:29;;;;;;;5.63;3.80;;;15.10;74.50;;;;;;5091503;23;20455;-81
2021/04/17 09:40:33;;;;;;;4.30;3.30;;;15.30;74.30;;;;;;5091489;23;20484;-80
2021/04/17 09:42:38;;;;;;;7.30;4.13;;;15.40;74.40;;;;;;5090684;23;20462;-80
2021/04/17 09:44:44;;;;;;;4.23;3.67;;;15.60;74.40;;;;;;5090379;23;21023;-80
2021/04/17 09:46:46;;;;;;;4.53;3.57;;;15.80;73.50;;;;;;5089772;23;20454;-81
2021/04/17 09:48:48;;;;;;;4.97;3.40;;;15.80;73.70;;;;;;5090286;23;20474;-81
2021/04/17 09:50:51;;;;;;;4.33;3.80;;;15.90;73.80;;;;;;5090321;23;20455;-80
2021/04/17 09:52:54;;;;;;;4.93;3.90;;;16.00;73.20;;;;;;5098470;23;20454;-83
2021/04/17 09:55:00;;;;;;;6.23;3.77;;;15.90;72.50;;;;;;5099205;23;20447;-79
2021/04/17 09:57:07;;;;;;;5.80;4.07;;;15.80;73.90;;;;;;5091458;23;20971;-80
2021/04/17 09:59:12;;;;;;;37.20;26.30;;;15.90;73.50;;;;;;5091270;23;20463;-80
2021/04/17 10:01:15;;;;;;;10.67;7.97;;;16.20;74.50;;;;;;5099887;23;20501;-81
2021/04/17 10:03:28;;;;;;;5.03;4.23;;;16.30;73.70;;;;;;5099640;23;20486;-80
2021/04/17 10:05:34;;;;;;;7.03;5.00;;;16.30;73.20;;;;;;5091277;23;20454;-81
2021/04/17 10:07:44;;;;;;;7.80;6.20;;;16.40;73.00;;;;;;5091367;23;20781;-80
2021/04/17 10:10:03;;;;;;;10.57;8.67;;;16.60;72.40;;;;;;5091231;23;20454;-80
2021/04/17 10:12:09;;;;;;;7.90;5.77;;;16.80;72.30;;;;;;5090918;23;20454;-80
2021/04/17 10:14:12;;;;;;;6.03;5.43;;;16.50;71.30;;;;;;5098865;23;20478;-79
2021/04/17 10:16:22;;;;;;;5.57;3.57;;;16.30;71.60;;;;;;5090483;23;20458;-80
2021/04/17 10:18:25;;;;;;;8.97;5.10;;;16.10;71.90;;;;;;5100057;23;20526;-80
2021/04/17 10:20:29;;;;;;;7.77;3.70;;;16.00;72.10;;;;;;5093679;23;20526;-79
2021/04/17 10:22:30;;;;;;;5.30;3.40;;;16.20;71.00;;;;;;5093143;23;20539;-79
2021/04/17 10:24:33;;;;;;;8.63;3.50;;;16.50;71.60;;;;;;5094509;23;20454;-80
2021/04/17 10:26:54;;;;;;;4.20;3.60;;;16.90;70.70;;;;;;5095389;23;20450;-80
2021/04/17 10:28:56;;;;;;;5.23;2.80;;;17.00;70.40;;;;;;5094317;23;20454;-79
2021/04/17 10:31:00;;;;;;;3.97;2.97;;;17.30;69.50;;;;;;5093404;23;20455;-79
2021/04/17 10:33:03;;;;;;;3.93;2.93;;;17.20;67.80;;;;;;5093286;23;20462;-80
2021/04/17 10:35:08;;;;;;;4.73;2.90;;;16.90;67.60;;;;;;5093291;23;21270;-81
2021/04/17 10:37:13;;;;;;;3.90;3.20;;;16.80;68.20;;;;;;5093305;23;20473;-81
2021/04/17 10:39:14;;;;;;;6.30;3.70;;;16.60;68.50;;;;;;5090907;23;20458;-80
2021/04/17 10:41:27;;;;;;;3.57;3.00;;;16.40;69.30;;;;;;5090944;23;20465;-81
2021/04/17 10:43:30;;;;;;;5.97;3.10;;;17.00;70.40;;;;;;5068887;23;550243;-80
2021/04/17 10:45:41;;;;;;;5.40;3.20;;;17.60;69.90;;;;;;5093212;23;20848;-81
2021/04/17 10:47:43;;;;;;;3.40;3.10;;;18.20;67.80;;;;;;5092707;23;20761;-84
2021/04/17 10:49:45;;;;;;;6.30;3.03;;;18.50;67.50;;;;;;5092846;23;20455;-81
2021/04/17 10:51:49;;;;;;;4.83;3.10;;;18.60;67.00;;;;;;5092620;23;20458;-79
2021/04/17 10:53:52;;;;;;;4.40;3.20;;;18.10;66.60;;;;;;5092775;23;20455;-81
2021/04/17 10:55:55;;;;;;;5.73;4.63;;;18.00;66.80;;;;;;5092521;23;20812;-80